METAR AND TAF INFORMATION
METAR FOR CYPD
ADDS - METARS form results

(0153 UTC 21 September 2018)
Data provider http://aviationweather.gov/metar/data/
 
METAR text: CYPD 210100Z AUTO 04005KT 9SM OVC044 08/05 A3027 RMK SLP256
Conditions at: CYPD (PORT HAWKESBURY , NS, CA) observed 0100 UTC 21 September 2018
Temperature: 8.0°C (46°F)
Dewpoint: 5.0°C (41°F) [RH = 81%]
Pressure (altimeter): 30.27 inches Hg (1025.1 mb)
[Sea-level pressure: 1025.6 mb]
Winds: from the NE (40 degrees) at 6 MPH (5 knots; 2.6 m/s)
Visibility: 9 miles (14 km)
Ceiling: 4400 feet AGL
Clouds: overcast cloud deck at 4400 feet AGL
Weather: no significant weather observed at this time

 AIRPORT MAP

 RUNWAY INFORMATION
Runway 11 Runway length 5000 ft Runway width 150 ft
Runway elevation 334 ft Runway displaced threshold 0 ft Runway heading 90
Runway 29 Runway length 5000 ft Runway width 150 ft
Runway elevation 375 ft Runway displaced threshold 0 ft Runway heading 270

 AIRPORT FREQUENCIES
Type RDO Name HALIFAX RD Frequency 126.7 MHZ
Type UNIC Name ATF/UNICOM Frequency 122.8 MHZ

 AIRPORT NEAR NAVIGATION AIDS
Type NDB Name Port Hawkesbury Frequency 229 KHZ



Powered by Virtual Airlines Manager [v2.6.2]